createdAt,value
2022-12-09T00:45:33.303Z,21.40
2022-12-09T00:48:01.984Z,21.50
2022-12-09T00:50:30.504Z,21.40
2022-12-09T00:53:00.207Z,21.40
2022-12-09T00:55:29.164Z,21.50
2022-12-09T00:57:58.255Z,22.00
2022-12-09T01:47:39.590Z,21.40
2022-12-09T01:50:09.940Z,21.50
2022-12-09T01:52:38.911Z,21.50
2022-12-09T01:55:08.619Z,20.40
2022-12-09T01:57:39.711Z,21.40
2022-12-09T02:00:11.376Z,20.20
2022-12-09T02:46:43.702Z,21.00
2022-12-09T02:49:16.141Z,21.30
2022-12-09T02:51:46.971Z,21.50
2022-12-09T02:54:20.886Z,21.20
2022-12-09T02:56:57.101Z,21.20
2022-12-09T02:59:28.842Z,21.20
2022-12-09T03:46:15.762Z,21.00
2022-12-09T03:48:44.732Z,21.70
2022-12-09T03:51:18.408Z,22.00
2022-12-09T03:53:55.946Z,21.20
2022-12-09T03:56:29.422Z,21.10
2022-12-09T03:59:01.864Z,21.20
2022-12-09T04:45:38.481Z,21.00
2022-12-09T04:48:07.592Z,21.00
2022-12-09T04:50:36.439Z,21.10
2022-12-09T04:53:05.181Z,21.00
2022-12-09T04:55:33.668Z,21.00
2022-12-09T04:58:02.294Z,20.80
2022-12-09T05:32:12.438Z,21.00
2022-12-09T05:34:41.117Z,21.00
2022-12-09T05:37:10.159Z,20.90
2022-12-09T05:39:39.177Z,21.00
2022-12-09T05:42:07.762Z,21.00
2022-12-09T05:44:36.259Z,21.00
2022-12-09T05:47:05.336Z,21.00
2022-12-09T05:49:35.545Z,21.00
2022-12-09T05:52:04.515Z,21.00
2022-12-09T05:54:33.310Z,21.00
2022-12-09T05:57:04.312Z,21.00
2022-12-09T05:59:32.910Z,21.00
2022-12-09T06:02:05.179Z,21.00
2022-12-09T06:04:39.529Z,21.00
2022-12-09T06:07:08.686Z,21.00
2022-12-09T06:09:37.886Z,21.00
2022-12-09T06:12:07.294Z,21.00
2022-12-09T06:17:05.377Z,21.10
2022-12-09T06:19:34.284Z,21.10
2022-12-09T06:22:04.840Z,21.00
2022-12-09T06:24:33.556Z,21.10
2022-12-09T06:27:02.159Z,21.30
2022-12-09T06:29:30.831Z,21.50
2022-12-09T06:32:00.310Z,21.70
2022-12-09T06:34:30.569Z,22.00
2022-12-09T06:36:59.482Z,22.10
2022-12-09T06:39:29.702Z,22.20
2022-12-09T06:41:58.400Z,22.20
2022-12-09T06:44:27.001Z,22.50
2022-12-09T06:46:55.483Z,23.00
2022-12-09T06:49:24.180Z,23.00
2022-12-09T06:51:53.437Z,23.00
2022-12-09T06:54:21.928Z,22.90
2022-12-09T06:56:52.611Z,23.00
2022-12-09T06:59:21.166Z,21.60
2022-12-09T07:01:50.071Z,23.30
2022-12-09T07:06:48.912Z,23.70
2022-12-09T07:09:20.368Z,23.60
2022-12-09T07:11:51.504Z,23.40
2022-12-09T07:14:20.309Z,23.60
2022-12-09T07:16:49.816Z,23.60
2022-12-09T07:19:21.300Z,23.50
2022-12-09T07:21:51.023Z,23.40
2022-12-09T07:24:20.598Z,23.30
2022-12-09T07:26:52.030Z,23.20
2022-12-09T07:29:21.004Z,23.00
2022-12-09T07:31:50.518Z,23.00
2022-12-09T07:34:19.483Z,22.80
2022-12-09T07:36:48.190Z,22.80
2022-12-09T07:39:19.280Z,22.80
2022-12-09T07:41:52.142Z,22.70
2022-12-09T07:44:22.279Z,22.60
2022-12-09T07:46:51.366Z,22.50
2022-12-09T07:49:20.167Z,22.60
2022-12-09T07:51:48.958Z,22.50
2022-12-09T07:54:20.537Z,22.50
2022-12-09T07:56:49.464Z,22.50
2022-12-09T07:59:18.459Z,22.50
2022-12-09T08:01:48.650Z,22.50
2022-12-09T08:04:17.205Z,22.40
2022-12-09T08:06:46.462Z,22.40
2022-12-09T08:09:16.013Z,22.40
2022-12-09T08:11:45.420Z,22.30
2022-12-09T08:14:14.274Z,22.30
2022-12-09T08:16:44.134Z,22.40
2022-12-09T08:19:14.622Z,22.00
2022-12-09T08:21:45.557Z,22.20
2022-12-09T08:24:17.268Z,22.20
2022-12-09T08:26:46.036Z,22.20
2022-12-09T08:29:15.283Z,22.20
2022-12-09T08:31:45.455Z,22.20
2022-12-09T08:34:16.267Z,22.20
2022-12-09T08:36:45.284Z,22.20
2022-12-09T08:39:15.688Z,22.20
2022-12-09T08:41:45.474Z,22.10
2022-12-09T08:44:16.392Z,22.10
2022-12-09T08:46:47.641Z,22.00
2022-12-09T08:49:22.092Z,22.00
2022-12-09T08:51:53.633Z,21.90
2022-12-09T08:54:22.429Z,21.90
2022-12-09T08:56:55.119Z,22.00
2022-12-09T08:59:24.670Z,21.90
2022-12-09T09:01:54.551Z,22.00
2022-12-09T09:04:25.138Z,22.00
2022-12-09T09:06:54.831Z,21.90
2022-12-09T09:09:23.780Z,21.90
2022-12-09T09:11:52.786Z,21.90
2022-12-09T09:14:22.025Z,21.90
2022-12-09T09:16:51.026Z,21.90
2022-12-09T09:19:23.486Z,21.90
2022-12-09T09:21:53.998Z,22.00
2022-12-09T09:24:26.146Z,22.00
2022-12-09T09:26:56.258Z,22.00
2022-12-09T09:29:25.599Z,22.00
2022-12-09T09:31:55.391Z,21.90
2022-12-09T09:34:25.382Z,21.90
2022-12-09T09:36:56.980Z,21.90
2022-12-09T09:39:26.583Z,21.90
2022-12-09T09:42:02.123Z,21.90
2022-12-09T09:44:41.150Z,22.00
2022-12-09T09:47:18.041Z,22.00
2022-12-09T09:49:55.106Z,21.90
2022-12-09T09:52:29.698Z,22.00
2022-12-09T09:54:59.351Z,22.00
2022-12-09T09:57:34.589Z,21.50
2022-12-09T10:00:19.444Z,22.00
2022-12-09T10:03:06.056Z,21.90
2022-12-09T10:05:38.548Z,21.80
2022-12-09T10:08:33.588Z,21.90
2022-12-09T10:11:16.275Z,21.90
2022-12-09T10:13:53.770Z,21.90
2022-12-09T10:16:28.193Z,21.90
2022-12-09T10:19:09.394Z,21.90
2022-12-09T10:21:46.053Z,21.90
2022-12-09T10:24:26.919Z,21.90
2022-12-09T10:27:11.794Z,21.90
2022-12-09T10:29:54.348Z,21.90
2022-12-09T10:32:26.558Z,21.90
2022-12-09T10:34:55.336Z,21.90
2022-12-09T10:37:31.635Z,21.90
2022-12-09T10:40:22.444Z,22.00
2022-12-09T10:43:13.110Z,21.90
2022-12-09T10:48:42.246Z,21.90
2022-12-09T10:51:16.913Z,21.80
2022-12-09T10:53:50.989Z,21.80
2022-12-09T10:56:25.203Z,21.80
2022-12-09T10:59:12.102Z,21.90
2022-12-09T11:01:52.781Z,21.80
2022-12-09T11:04:26.680Z,21.60
2022-12-09T11:07:00.034Z,21.90
2022-12-09T11:09:32.150Z,21.90
2022-12-09T11:12:05.838Z,21.90
2022-12-09T11:14:37.513Z,21.70
2022-12-09T11:17:20.218Z,21.90
2022-12-09T11:19:52.576Z,21.90
2022-12-09T11:22:33.483Z,21.80
2022-12-09T11:25:22.695Z,22.00
2022-12-09T11:27:57.068Z,21.90
2022-12-09T11:30:29.478Z,21.90
2022-12-09T11:33:07.690Z,21.90
2022-12-09T11:35:53.999Z,21.90
2022-12-09T11:38:41.789Z,22.00
2022-12-09T11:41:34.975Z,22.00
2022-12-09T11:44:24.189Z,22.00
2022-12-09T11:47:02.061Z,22.00
2022-12-09T11:49:33.871Z,22.00
2022-12-09T11:52:23.542Z,22.00
2022-12-09T11:55:13.354Z,21.90
2022-12-09T11:57:49.637Z,21.90
2022-12-09T12:00:24.999Z,21.80
2022-12-09T12:03:04.396Z,21.90
2022-12-09T12:05:40.237Z,21.90
2022-12-09T12:08:19.356Z,21.90
2022-12-09T12:10:53.371Z,22.60
2022-12-09T12:13:24.967Z,21.80
2022-12-09T12:16:05.763Z,21.80
2022-12-09T12:18:42.363Z,21.80
2022-12-09T12:21:47.456Z,21.80
2022-12-09T12:24:55.118Z,21.80
2022-12-09T12:27:42.597Z,21.80
2022-12-09T12:30:14.018Z,21.70
2022-12-09T12:36:03.813Z,21.60
2022-12-09T12:38:58.050Z,21.50
2022-12-09T12:41:41.342Z,21.60
2022-12-09T12:44:59.117Z,21.50
2022-12-09T12:47:39.503Z,21.50
2022-12-09T12:50:56.104Z,21.40
2022-12-09T12:53:37.837Z,21.50
2022-12-09T12:56:12.732Z,21.50
2022-12-09T12:58:56.528Z,21.40
2022-12-09T13:01:31.229Z,21.40
2022-12-09T13:04:15.004Z,21.30
2022-12-09T13:06:51.852Z,21.30
2022-12-09T13:12:08.572Z,21.30
2022-12-09T13:14:52.089Z,21.30
2022-12-09T13:17:24.321Z,21.20
2022-12-09T13:19:56.147Z,21.30
2022-12-09T13:22:33.751Z,21.30
2022-12-09T13:25:13.830Z,21.30
2022-12-09T13:30:23.334Z,21.30
2022-12-09T13:33:21.383Z,21.30
2022-12-09T13:35:56.874Z,21.30
2022-12-09T13:38:36.444Z,21.30
2022-12-09T13:42:03.968Z,21.30
2022-12-09T13:44:36.685Z,21.30
2022-12-09T13:47:24.476Z,21.20
2022-12-09T13:50:00.662Z,21.30
2022-12-09T13:52:51.784Z,21.30
2022-12-09T13:55:33.755Z,21.30
2022-12-09T13:58:47.108Z,21.30
2022-12-09T14:01:24.723Z,21.60
2022-12-09T14:04:08.159Z,21.50
2022-12-09T14:06:48.886Z,22.40
2022-12-09T14:09:34.230Z,21.50
2022-12-09T14:12:06.527Z,21.50
2022-12-09T14:18:03.074Z,21.40
2022-12-09T14:20:39.072Z,21.50
2022-12-09T14:23:18.408Z,21.50
2022-12-09T14:26:09.358Z,21.50
2022-12-09T14:28:55.788Z,21.50
2022-12-09T14:32:01.706Z,21.50
2022-12-09T14:34:40.211Z,21.50
2022-12-09T14:37:45.373Z,21.50
2022-12-09T14:40:53.080Z,21.50
2022-12-09T14:44:15.758Z,21.50
2022-12-09T14:46:49.291Z,21.60
2022-12-09T14:49:21.883Z,21.20
2022-12-09T14:51:53.168Z,21.50
2022-12-09T14:54:26.638Z,21.40
2022-12-09T14:56:59.076Z,21.50
2022-12-09T14:59:31.838Z,21.30
2022-12-09T15:02:03.347Z,21.40
2022-12-09T15:04:34.748Z,21.30
2022-12-09T15:07:16.194Z,21.30
2022-12-09T15:09:54.763Z,21.30
2022-12-09T15:12:30.434Z,21.30
2022-12-09T15:15:07.449Z,21.30
2022-12-09T15:17:43.203Z,21.50
2022-12-09T15:20:24.589Z,21.50
2022-12-09T15:22:55.447Z,21.40
2022-12-09T15:25:25.307Z,21.40
2022-12-09T15:28:02.663Z,21.40
2022-12-09T15:30:38.422Z,21.30
2022-12-09T15:33:15.843Z,21.50
2022-12-09T15:35:50.901Z,21.60
2022-12-09T15:38:21.479Z,21.60
2022-12-09T15:41:03.817Z,21.60
2022-12-09T15:43:35.921Z,21.50
2022-12-09T15:46:06.788Z,21.60
2022-12-09T15:48:41.757Z,21.50
2022-12-09T15:51:17.318Z,21.50
2022-12-09T15:53:55.271Z,21.90
2022-12-09T15:56:28.812Z,21.60
2022-12-09T15:59:02.141Z,21.70
2022-12-09T16:01:34.572Z,21.50
2022-12-09T16:04:05.138Z,21.70
2022-12-09T16:06:36.799Z,21.80
2022-12-09T16:09:13.770Z,21.80
2022-12-09T16:11:45.642Z,21.70
2022-12-09T16:14:15.682Z,21.90
2022-12-09T16:16:48.578Z,21.90
2022-12-09T16:19:35.092Z,22.00
2022-12-09T16:22:07.733Z,22.00
2022-12-09T16:25:13.030Z,22.10
2022-12-09T16:27:37.270Z,22.10
2022-12-09T16:30:14.470Z,22.20
2022-12-09T16:32:46.301Z,22.10
2022-12-09T16:35:24.295Z,22.20
2022-12-09T16:38:22.881Z,22.10
2022-12-09T16:41:12.845Z,22.20
2022-12-09T16:43:59.153Z,22.20
2022-12-09T16:46:40.484Z,22.20
2022-12-09T16:49:10.569Z,22.20
2022-12-09T16:51:40.440Z,22.20
2022-12-09T16:54:20.583Z,22.30
2022-12-09T16:56:51.315Z,22.20
2022-12-09T16:59:19.813Z,22.30
2022-12-09T17:01:48.344Z,22.30
2022-12-09T17:04:22.017Z,22.30
2022-12-09T17:06:50.660Z,22.30
2022-12-09T17:09:19.071Z,22.30
2022-12-09T17:11:49.119Z,22.30
2022-12-09T17:14:18.556Z,22.20
2022-12-09T17:16:47.041Z,22.30
2022-12-09T17:19:16.907Z,22.30
2022-12-09T17:21:45.318Z,22.20
2022-12-09T17:24:15.827Z,22.00
2022-12-09T17:26:44.257Z,22.10
2022-12-09T17:29:17.725Z,22.00
2022-12-09T17:34:19.951Z,21.90
2022-12-09T17:36:48.408Z,21.90
2022-12-09T17:39:16.773Z,22.00
2022-12-09T17:41:45.247Z,21.90
2022-12-09T17:44:13.679Z,21.60
2022-12-09T17:46:42.125Z,21.80
2022-12-09T17:49:10.739Z,21.80
2022-12-09T17:51:41.022Z,21.80
2022-12-09T17:54:09.740Z,21.80
2022-12-09T17:56:38.676Z,21.80
2022-12-09T17:59:10.223Z,21.80
2022-12-09T18:01:41.041Z,21.80
2022-12-09T18:04:11.135Z,21.70
2022-12-09T18:06:43.293Z,21.80
2022-12-09T18:09:14.632Z,21.70
2022-12-09T18:11:43.983Z,21.70
2022-12-09T18:14:12.856Z,21.60
2022-12-09T18:16:41.875Z,21.60
2022-12-09T18:19:16.338Z,21.60
2022-12-09T18:21:46.595Z,21.60
2022-12-09T18:24:15.036Z,21.70
2022-12-09T18:26:43.992Z,21.60
2022-12-09T18:29:13.295Z,21.70
2022-12-09T18:31:45.505Z,21.70
2022-12-09T18:34:14.291Z,21.70
2022-12-09T18:36:42.833Z,21.80
2022-12-09T18:39:12.949Z,21.70
2022-12-09T18:41:42.537Z,21.70
2022-12-09T18:44:13.196Z,21.70
2022-12-09T18:46:45.293Z,21.70
2022-12-09T18:49:16.378Z,20.70
2022-12-09T18:51:47.224Z,21.70
2022-12-09T18:54:20.328Z,21.70
2022-12-09T18:56:48.776Z,21.80
2022-12-09T18:59:17.381Z,21.80
2022-12-09T19:01:48.123Z,22.10
2022-12-09T19:04:19.408Z,21.60
2022-12-09T19:06:50.953Z,21.60
2022-12-09T19:09:24.642Z,21.50
2022-12-09T19:11:54.452Z,21.60
2022-12-09T19:14:24.433Z,21.50
2022-12-09T19:16:54.269Z,21.50
2022-12-09T19:19:24.831Z,21.50
2022-12-09T19:21:54.444Z,21.40
2022-12-09T19:24:27.698Z,21.40
2022-12-09T19:26:58.183Z,21.30
2022-12-09T19:29:28.029Z,21.20
2022-12-09T19:31:58.416Z,21.40
2022-12-09T19:34:29.520Z,21.40
2022-12-09T19:37:01.411Z,21.40
2022-12-09T19:39:34.146Z,21.20
2022-12-09T19:42:04.883Z,21.30
2022-12-09T19:47:22.473Z,21.40
2022-12-09T19:49:50.981Z,21.30
2022-12-09T19:52:19.715Z,21.40
2022-12-09T19:54:49.595Z,21.30
2022-12-09T19:57:18.049Z,21.40
2022-12-09T19:59:47.397Z,21.30
2022-12-09T20:02:15.783Z,21.30
2022-12-09T20:04:49.107Z,21.30
2022-12-09T20:07:18.467Z,21.20
2022-12-09T20:09:48.309Z,21.20
2022-12-09T20:12:16.728Z,21.30
2022-12-09T20:14:45.254Z,21.30
2022-12-09T20:17:13.700Z,21.30
2022-12-09T20:19:42.438Z,21.30
2022-12-09T20:22:11.136Z,21.30
2022-12-09T20:24:39.633Z,21.20
2022-12-09T20:27:10.155Z,21.20
2022-12-09T20:29:38.666Z,21.10
2022-12-09T20:32:08.729Z,21.20
2022-12-09T20:34:37.547Z,21.20
2022-12-09T20:37:07.158Z,21.10
2022-12-09T20:39:35.719Z,21.10
2022-12-09T20:42:03.981Z,21.10
2022-12-09T20:44:33.747Z,21.10
2022-12-09T20:47:02.091Z,21.10
2022-12-09T20:49:30.693Z,21.20
2022-12-09T20:51:59.221Z,21.00
2022-12-09T20:54:27.977Z,21.00
2022-12-09T20:56:56.679Z,21.10
2022-12-09T20:59:25.508Z,21.10
2022-12-09T21:01:55.961Z,21.00
2022-12-09T21:04:24.924Z,20.90
2022-12-09T21:06:53.724Z,20.80
2022-12-09T21:09:27.028Z,21.00
2022-12-09T21:11:55.597Z,21.00
2022-12-09T21:14:28.103Z,21.00
2022-12-09T21:17:04.532Z,21.00
2022-12-09T21:19:34.237Z,20.90
2022-12-09T21:22:04.014Z,21.00
2022-12-09T21:24:33.054Z,20.90
2022-12-09T21:27:01.755Z,21.00
2022-12-09T21:29:32.194Z,21.00
2022-12-09T21:32:03.144Z,21.10
2022-12-09T21:34:32.763Z,21.10
2022-12-09T21:37:01.996Z,21.00
2022-12-09T21:39:30.499Z,21.00
2022-12-09T21:41:58.928Z,21.10
2022-12-09T21:44:28.280Z,21.10
2022-12-09T21:46:56.947Z,21.00
2022-12-09T21:49:29.604Z,21.00
2022-12-09T21:51:58.355Z,20.30
2022-12-09T21:54:27.111Z,21.00
2022-12-09T21:56:56.109Z,21.00
2022-12-09T21:59:24.527Z,21.00
2022-12-09T22:01:54.116Z,21.00
2022-12-09T22:04:22.509Z,21.00
2022-12-09T22:06:52.863Z,21.00
2022-12-09T22:09:21.769Z,20.90
2022-12-09T22:11:50.212Z,20.70
2022-12-09T22:14:18.959Z,20.90
2022-12-09T22:16:48.085Z,19.40
2022-12-09T22:19:19.488Z,20.90
2022-12-09T22:21:48.465Z,20.90
2022-12-09T22:24:19.345Z,20.80
2022-12-09T22:26:47.845Z,20.90
2022-12-09T22:29:18.944Z,20.80
2022-12-09T22:31:47.979Z,20.90
2022-12-09T22:34:20.476Z,20.90
2022-12-09T22:36:50.342Z,20.80
2022-12-09T22:39:22.852Z,20.80
2022-12-09T22:41:51.851Z,20.90
2022-12-09T22:44:21.476Z,20.90
2022-12-09T22:46:50.150Z,21.00
2022-12-09T23:46:16.869Z,20.80
2022-12-09T23:48:46.424Z,20.80
2022-12-09T23:51:18.269Z,20.80
2022-12-09T23:53:49.390Z,20.80
2022-12-09T23:56:21.688Z,20.90
2022-12-09T23:58:55.671Z,20.70
